sensor_id;sensor_type;location;lat;lon;timestamp;P1;durP1;ratioP1;P2;durP2;ratioP2
11763;SDS011;5939;56.522;14.950;2023-05-23T00:01:29;2.63;;;2.00;;
11763;SDS011;5939;56.522;14.950;2023-05-23T00:03:56;2.53;;;1.90;;
11763;SDS011;5939;56.522;14.950;2023-05-23T00:06:21;2.00;;;1.80;;
11763;SDS011;5939;56.522;14.950;2023-05-23T00:08:47;3.27;;;1.90;;
11763;SDS011;5939;56.522;14.950;2023-05-23T00:11:14;2.37;;;2.17;;
11763;SDS011;5939;56.522;14.950;2023-05-23T00:13:40;2.20;;;1.87;;
11763;SDS011;5939;56.522;14.950;2023-05-23T00:16:06;2.20;;;1.97;;
11763;SDS011;5939;56.522;14.950;2023-05-23T00:18:35;2.73;;;1.93;;
11763;SDS011;5939;56.522;14.950;2023-05-23T00:21:02;2.60;;;2.23;;
11763;SDS011;5939;56.522;14.950;2023-05-23T00:23:28;2.13;;;1.77;;
11763;SDS011;5939;56.522;14.950;2023-05-23T00:25:54;1.87;;;1.77;;
11763;SDS011;5939;56.522;14.950;2023-05-23T00:28:22;2.33;;;1.90;;
11763;SDS011;5939;56.522;14.950;2023-05-23T00:30:49;3.23;;;1.90;;
11763;SDS011;5939;56.522;14.950;2023-05-23T00:33:16;4.33;;;2.03;;
11763;SDS011;5939;56.522;14.950;2023-05-23T00:35:45;2.20;;;1.93;;
11763;SDS011;5939;56.522;14.950;2023-05-23T00:38:12;2.67;;;2.20;;
11763;SDS011;5939;56.522;14.950;2023-05-23T00:40:38;1.60;;;1.50;;
11763;SDS011;5939;56.522;14.950;2023-05-23T00:43:05;3.67;;;2.13;;
11763;SDS011;5939;56.522;14.950;2023-05-23T00:45:34;1.80;;;1.70;;
11763;SDS011;5939;56.522;14.950;2023-05-23T00:48:00;3.20;;;1.80;;
11763;SDS011;5939;56.522;14.950;2023-05-23T00:50:27;3.67;;;1.80;;
11763;SDS011;5939;56.522;14.950;2023-05-23T00:52:54;2.30;;;1.93;;
11763;SDS011;5939;56.522;14.950;2023-05-23T00:55:21;2.50;;;2.07;;
11763;SDS011;5939;56.522;14.950;2023-05-23T00:57:48;2.07;;;1.87;;
11763;SDS011;5939;56.522;14.950;2023-05-23T01:00:14;2.30;;;1.80;;
11763;SDS011;5939;56.522;14.950;2023-05-23T01:02:42;2.10;;;1.83;;
11763;SDS011;5939;56.522;14.950;2023-05-23T01:05:09;2.10;;;1.90;;
11763;SDS011;5939;56.522;14.950;2023-05-23T01:07:48;2.50;;;2.00;;
11763;SDS011;5939;56.522;14.950;2023-05-23T01:10:15;2.40;;;2.20;;
11763;SDS011;5939;56.522;14.950;2023-05-23T01:15:24;3.33;;;1.70;;
11763;SDS011;5939;56.522;14.950;2023-05-23T01:18:09;3.03;;;2.20;;
11763;SDS011;5939;56.522;14.950;2023-05-23T01:20:54;2.10;;;1.90;;
11763;SDS011;5939;56.522;14.950;2023-05-23T01:28:26;2.43;;;1.77;;
11763;SDS011;5939;56.522;14.950;2023-05-23T01:30:53;2.27;;;1.90;;
11763;SDS011;5939;56.522;14.950;2023-05-23T01:33:22;2.70;;;2.17;;
11763;SDS011;5939;56.522;14.950;2023-05-23T01:35:50;2.10;;;1.90;;
11763;SDS011;5939;56.522;14.950;2023-05-23T01:38:16;2.70;;;1.97;;
11763;SDS011;5939;56.522;14.950;2023-05-23T01:40:42;2.83;;;2.03;;
11763;SDS011;5939;56.522;14.950;2023-05-23T01:43:08;2.47;;;2.00;;
11763;SDS011;5939;56.522;14.950;2023-05-23T01:45:35;2.67;;;1.90;;
11763;SDS011;5939;56.522;14.950;2023-05-23T01:48:01;3.57;;;2.17;;
11763;SDS011;5939;56.522;14.950;2023-05-23T01:50:27;3.27;;;2.07;;
11763;SDS011;5939;56.522;14.950;2023-05-23T01:52:54;2.37;;;2.13;;
11763;SDS011;5939;56.522;14.950;2023-05-23T01:55:20;2.70;;;2.03;;
11763;SDS011;5939;56.522;14.950;2023-05-23T01:57:52;2.93;;;1.93;;
11763;SDS011;5939;56.522;14.950;2023-05-23T02:00:19;2.70;;;2.30;;
11763;SDS011;5939;56.522;14.950;2023-05-23T02:02:45;2.33;;;1.70;;
11763;SDS011;5939;56.522;14.950;2023-05-23T02:05:12;2.20;;;1.83;;
11763;SDS011;5939;56.522;14.950;2023-05-23T02:07:38;2.03;;;1.83;;
11763;SDS011;5939;56.522;14.950;2023-05-23T02:10:06;2.97;;;2.07;;
11763;SDS011;5939;56.522;14.950;2023-05-23T02:12:32;2.20;;;1.83;;
11763;SDS011;5939;56.522;14.950;2023-05-23T02:14:59;3.03;;;1.90;;
11763;SDS011;5939;56.522;14.950;2023-05-23T02:17:25;2.37;;;1.90;;
11763;SDS011;5939;56.522;14.950;2023-05-23T02:19:51;2.67;;;2.13;;
11763;SDS011;5939;56.522;14.950;2023-05-23T02:22:17;2.03;;;1.83;;
11763;SDS011;5939;56.522;14.950;2023-05-23T02:24:43;2.40;;;2.20;;
11763;SDS011;5939;56.522;14.950;2023-05-23T02:27:09;2.33;;;2.07;;
11763;SDS011;5939;56.522;14.950;2023-05-23T02:29:35;2.23;;;1.77;;
11763;SDS011;5939;56.522;14.950;2023-05-23T02:32:01;2.40;;;2.20;;
11763;SDS011;5939;56.522;14.950;2023-05-23T02:34:27;2.00;;;1.80;;
11763;SDS011;5939;56.522;14.950;2023-05-23T02:36:53;1.80;;;1.70;;
11763;SDS011;5939;56.522;14.950;2023-05-23T02:39:19;4.57;;;1.90;;
11763;SDS011;5939;56.522;14.950;2023-05-23T02:41:45;2.67;;;1.80;;
11763;SDS011;5939;56.522;14.950;2023-05-23T02:44:11;2.27;;;1.83;;
11763;SDS011;5939;56.522;14.950;2023-05-23T02:46:37;2.30;;;2.10;;
11763;SDS011;5939;56.522;14.950;2023-05-23T02:49:03;2.10;;;1.90;;
11763;SDS011;5939;56.522;14.950;2023-05-23T02:51:29;3.73;;;2.10;;
11763;SDS011;5939;56.522;14.950;2023-05-23T02:53:56;2.20;;;1.90;;
11763;SDS011;5939;56.522;14.950;2023-05-23T02:56:22;3.07;;;2.20;;
11763;SDS011;5939;56.522;14.950;2023-05-23T02:58:48;3.10;;;2.00;;
11763;SDS011;5939;56.522;14.950;2023-05-23T03:01:14;3.57;;;1.90;;
11763;SDS011;5939;56.522;14.950;2023-05-23T03:03:40;1.87;;;1.70;;
11763;SDS011;5939;56.522;14.950;2023-05-23T03:06:06;3.13;;;1.83;;
11763;SDS011;5939;56.522;14.950;2023-05-23T03:08:34;2.90;;;2.13;;
11763;SDS011;5939;56.522;14.950;2023-05-23T03:11:00;1.90;;;1.80;;
11763;SDS011;5939;56.522;14.950;2023-05-23T03:13:27;2.13;;;1.93;;
11763;SDS011;5939;56.522;14.950;2023-05-23T03:15:53;2.33;;;2.10;;
11763;SDS011;5939;56.522;14.950;2023-05-23T03:18:19;1.87;;;1.67;;
11763;SDS011;5939;56.522;14.950;2023-05-23T03:20:45;2.10;;;1.90;;
11763;SDS011;5939;56.522;14.950;2023-05-23T03:23:11;2.37;;;2.00;;
11763;SDS011;5939;56.522;14.950;2023-05-23T03:25:37;2.10;;;1.90;;
11763;SDS011;5939;56.522;14.950;2023-05-23T03:28:03;2.93;;;2.00;;
11763;SDS011;5939;56.522;14.950;2023-05-23T03:30:29;2.53;;;1.90;;
11763;SDS011;5939;56.522;14.950;2023-05-23T03:32:55;2.07;;;1.80;;
11763;SDS011;5939;56.522;14.950;2023-05-23T03:35:21;2.03;;;1.80;;
11763;SDS011;5939;56.522;14.950;2023-05-23T03:37:47;2.37;;;2.00;;
11763;SDS011;5939;56.522;14.950;2023-05-23T03:40:13;2.20;;;1.80;;
11763;SDS011;5939;56.522;14.950;2023-05-23T03:42:39;1.67;;;1.57;;
11763;SDS011;5939;56.522;14.950;2023-05-23T03:45:05;3.07;;;2.00;;
11763;SDS011;5939;56.522;14.950;2023-05-23T03:47:31;2.00;;;1.80;;
11763;SDS011;5939;56.522;14.950;2023-05-23T03:49:57;2.23;;;2.03;;
11763;SDS011;5939;56.522;14.950;2023-05-23T03:52:23;2.80;;;1.90;;
11763;SDS011;5939;56.522;14.950;2023-05-23T03:54:49;2.20;;;1.70;;
11763;SDS011;5939;56.522;14.950;2023-05-23T03:57:15;2.20;;;2.00;;
11763;SDS011;5939;56.522;14.950;2023-05-23T03:59:41;3.10;;;2.53;;
11763;SDS011;5939;56.522;14.950;2023-05-23T04:02:07;2.50;;;2.27;;
11763;SDS011;5939;56.522;14.950;2023-05-23T04:04:33;3.40;;;1.87;;
11763;SDS011;5939;56.522;14.950;2023-05-23T04:07:00;2.37;;;2.00;;
11763;SDS011;5939;56.522;14.950;2023-05-23T04:09:26;2.70;;;1.90;;
11763;SDS011;5939;56.522;14.950;2023-05-23T04:11:52;2.77;;;2.00;;
11763;SDS011;5939;56.522;14.950;2023-05-23T04:14:18;2.83;;;2.00;;
11763;SDS011;5939;56.522;14.950;2023-05-23T04:16:46;2.57;;;2.10;;
11763;SDS011;5939;56.522;14.950;2023-05-23T04:19:12;4.40;;;2.03;;
11763;SDS011;5939;56.522;14.950;2023-05-23T04:21:38;2.43;;;2.23;;
11763;SDS011;5939;56.522;14.950;2023-05-23T04:24:04;2.70;;;2.20;;
11763;SDS011;5939;56.522;14.950;2023-05-23T04:26:30;3.30;;;2.10;;
11763;SDS011;5939;56.522;14.950;2023-05-23T04:28:57;3.63;;;2.20;;
11763;SDS011;5939;56.522;14.950;2023-05-23T04:31:23;2.90;;;2.20;;
11763;SDS011;5939;56.522;14.950;2023-05-23T04:33:49;2.03;;;1.83;;
11763;SDS011;5939;56.522;14.950;2023-05-23T04:36:15;2.03;;;1.70;;
11763;SDS011;5939;56.522;14.950;2023-05-23T04:38:42;1.83;;;1.70;;
11763;SDS011;5939;56.522;14.950;2023-05-23T04:41:08;1.90;;;1.80;;
11763;SDS011;5939;56.522;14.950;2023-05-23T04:43:34;2.30;;;1.93;;
11763;SDS011;5939;56.522;14.950;2023-05-23T04:46:06;2.47;;;2.07;;
11763;SDS011;5939;56.522;14.950;2023-05-23T04:48:32;2.50;;;2.20;;
11763;SDS011;5939;56.522;14.950;2023-05-23T04:51:00;2.13;;;1.93;;
11763;SDS011;5939;56.522;14.950;2023-05-23T04:53:30;2.30;;;1.73;;
11763;SDS011;5939;56.522;14.950;2023-05-23T04:55:56;5.27;;;2.33;;
11763;SDS011;5939;56.522;14.950;2023-05-23T04:58:22;2.73;;;2.00;;
11763;SDS011;5939;56.522;14.950;2023-05-23T05:00:48;2.20;;;2.00;;
11763;SDS011;5939;56.522;14.950;2023-05-23T05:03:14;2.53;;;2.17;;
11763;SDS011;5939;56.522;14.950;2023-05-23T05:05:40;2.00;;;1.80;;
11763;SDS011;5939;56.522;14.950;2023-05-23T05:08:06;2.17;;;1.97;;
11763;SDS011;5939;56.522;14.950;2023-05-23T05:10:32;2.70;;;2.00;;
11763;SDS011;5939;56.522;14.950;2023-05-23T05:12:58;2.50;;;2.13;;
11763;SDS011;5939;56.522;14.950;2023-05-23T05:15:24;2.53;;;2.23;;
11763;SDS011;5939;56.522;14.950;2023-05-23T05:17:50;2.07;;;1.87;;
11763;SDS011;5939;56.522;14.950;2023-05-23T05:20:16;2.40;;;1.83;;
11763;SDS011;5939;56.522;14.950;2023-05-23T05:22:42;2.53;;;2.10;;
11763;SDS011;5939;56.522;14.950;2023-05-23T05:25:09;5.30;;;2.00;;
11763;SDS011;5939;56.522;14.950;2023-05-23T05:27:35;2.67;;;1.93;;
11763;SDS011;5939;56.522;14.950;2023-05-23T05:30:06;2.47;;;2.23;;
11763;SDS011;5939;56.522;14.950;2023-05-23T05:32:32;2.70;;;1.80;;
11763;SDS011;5939;56.522;14.950;2023-05-23T05:34:59;1.83;;;1.60;;
11763;SDS011;5939;56.522;14.950;2023-05-23T05:37:25;2.53;;;2.10;;
11763;SDS011;5939;56.522;14.950;2023-05-23T05:39:51;2.10;;;1.90;;
11763;SDS011;5939;56.522;14.950;2023-05-23T05:42:18;2.93;;;2.10;;
11763;SDS011;5939;56.522;14.950;2023-05-23T05:44:44;2.00;;;1.73;;
11763;SDS011;5939;56.522;14.950;2023-05-23T05:47:10;2.00;;;1.80;;
11763;SDS011;5939;56.522;14.950;2023-05-23T05:49:37;2.73;;;2.17;;
11763;SDS011;5939;56.522;14.950;2023-05-23T05:52:03;2.97;;;2.10;;
11763;SDS011;5939;56.522;14.950;2023-05-23T05:54:30;2.10;;;1.90;;
11763;SDS011;5939;56.522;14.950;2023-05-23T05:56:56;3.10;;;2.30;;
11763;SDS011;5939;56.522;14.950;2023-05-23T05:59:23;5.23;;;2.10;;
11763;SDS011;5939;56.522;14.950;2023-05-23T06:01:49;3.13;;;1.73;;
11763;SDS011;5939;56.522;14.950;2023-05-23T06:04:17;2.50;;;1.97;;
11763;SDS011;5939;56.522;14.950;2023-05-23T06:06:43;2.53;;;2.00;;
11763;SDS011;5939;56.522;14.950;2023-05-23T06:09:10;3.30;;;2.13;;
11763;SDS011;5939;56.522;14.950;2023-05-23T06:11:36;2.10;;;1.90;;
11763;SDS011;5939;56.522;14.950;2023-05-23T06:14:05;1.90;;;1.70;;
11763;SDS011;5939;56.522;14.950;2023-05-23T06:16:31;2.57;;;1.93;;
11763;SDS011;5939;56.522;14.950;2023-05-23T06:18:58;2.17;;;1.90;;
11763;SDS011;5939;56.522;14.950;2023-05-23T06:21:24;2.83;;;1.70;;
11763;SDS011;5939;56.522;14.950;2023-05-23T06:23:50;1.90;;;1.70;;
11763;SDS011;5939;56.522;14.950;2023-05-23T06:26:16;3.07;;;2.00;;
11763;SDS011;5939;56.522;14.950;2023-05-23T06:28:42;4.00;;;1.80;;
11763;SDS011;5939;56.522;14.950;2023-05-23T06:31:08;3.77;;;2.07;;
11763;SDS011;5939;56.522;14.950;2023-05-23T06:33:34;2.07;;;1.87;;
11763;SDS011;5939;56.522;14.950;2023-05-23T06:36:00;3.87;;;2.10;;
11763;SDS011;5939;56.522;14.950;2023-05-23T06:38:28;2.83;;;2.13;;
11763;SDS011;5939;56.522;14.950;2023-05-23T06:40:54;2.93;;;2.10;;
11763;SDS011;5939;56.522;14.950;2023-05-23T06:43:20;2.40;;;2.13;;
11763;SDS011;5939;56.522;14.950;2023-05-23T06:45:46;4.03;;;2.07;;
11763;SDS011;5939;56.522;14.950;2023-05-23T06:48:12;3.57;;;2.33;;
11763;SDS011;5939;56.522;14.950;2023-05-23T06:50:39;2.13;;;1.73;;
11763;SDS011;5939;56.522;14.950;2023-05-23T06:53:05;2.37;;;2.17;;
11763;SDS011;5939;56.522;14.950;2023-05-23T06:55:32;3.10;;;2.20;;
11763;SDS011;5939;56.522;14.950;2023-05-23T06:57:58;3.23;;;2.13;;
11763;SDS011;5939;56.522;14.950;2023-05-23T07:00:25;2.73;;;2.20;;
11763;SDS011;5939;56.522;14.950;2023-05-23T07:02:51;2.57;;;2.20;;
11763;SDS011;5939;56.522;14.950;2023-05-23T07:05:17;3.00;;;2.30;;
11763;SDS011;5939;56.522;14.950;2023-05-23T07:07:43;2.13;;;1.83;;
11763;SDS011;5939;56.522;14.950;2023-05-23T07:10:09;2.53;;;2.20;;
11763;SDS011;5939;56.522;14.950;2023-05-23T07:12:35;2.03;;;1.83;;
11763;SDS011;5939;56.522;14.950;2023-05-23T07:15:01;3.70;;;2.07;;
11763;SDS011;5939;56.522;14.950;2023-05-23T07:17:27;1.80;;;1.70;;
11763;SDS011;5939;56.522;14.950;2023-05-23T07:19:54;2.20;;;1.93;;
11763;SDS011;5939;56.522;14.950;2023-05-23T07:22:20;2.40;;;1.80;;
11763;SDS011;5939;56.522;14.950;2023-05-23T07:24:46;3.80;;;2.30;;
11763;SDS011;5939;56.522;14.950;2023-05-23T07:27:12;2.73;;;2.10;;
11763;SDS011;5939;56.522;14.950;2023-05-23T07:29:38;2.60;;;2.13;;
11763;SDS011;5939;56.522;14.950;2023-05-23T07:32:05;3.63;;;2.30;;
11763;SDS011;5939;56.522;14.950;2023-05-23T07:34:31;2.80;;;2.10;;
11763;SDS011;5939;56.522;14.950;2023-05-23T07:36:57;2.73;;;2.00;;
11763;SDS011;5939;56.522;14.950;2023-05-23T07:39:23;2.53;;;2.10;;
11763;SDS011;5939;56.522;14.950;2023-05-23T07:41:49;3.30;;;2.07;;
11763;SDS011;5939;56.522;14.950;2023-05-23T07:44:16;2.70;;;2.17;;
11763;SDS011;5939;56.522;14.950;2023-05-23T07:46:42;4.67;;;2.00;;
11763;SDS011;5939;56.522;14.950;2023-05-23T07:49:08;2.30;;;2.10;;
11763;SDS011;5939;56.522;14.950;2023-05-23T07:51:35;2.37;;;1.80;;
11763;SDS011;5939;56.522;14.950;2023-05-23T07:54:01;2.60;;;2.00;;
11763;SDS011;5939;56.522;14.950;2023-05-23T07:56:27;3.70;;;2.33;;
11763;SDS011;5939;56.522;14.950;2023-05-23T07:58:53;2.20;;;1.80;;
11763;SDS011;5939;56.522;14.950;2023-05-23T08:01:19;2.57;;;2.20;;
11763;SDS011;5939;56.522;14.950;2023-05-23T08:03:46;2.93;;;2.00;;
11763;SDS011;5939;56.522;14.950;2023-05-23T08:06:12;2.93;;;1.90;;
11763;SDS011;5939;56.522;14.950;2023-05-23T08:08:38;2.80;;;2.00;;
11763;SDS011;5939;56.522;14.950;2023-05-23T08:11:05;2.30;;;2.10;;
11763;SDS011;5939;56.522;14.950;2023-05-23T08:13:31;2.33;;;2.13;;
11763;SDS011;5939;56.522;14.950;2023-05-23T08:15:57;2.77;;;2.07;;
11763;SDS011;5939;56.522;14.950;2023-05-23T08:18:23;2.30;;;2.07;;
11763;SDS011;5939;56.522;14.950;2023-05-23T08:20:49;2.30;;;2.00;;
11763;SDS011;5939;56.522;14.950;2023-05-23T08:23:15;2.10;;;1.87;;
11763;SDS011;5939;56.522;14.950;2023-05-23T08:25:42;5.90;;;2.33;;
11763;SDS011;5939;56.522;14.950;2023-05-23T08:28:08;2.67;;;2.27;;
11763;SDS011;5939;56.522;14.950;2023-05-23T08:30:34;2.93;;;2.00;;
11763;SDS011;5939;56.522;14.950;2023-05-23T08:33:00;2.10;;;1.90;;
11763;SDS011;5939;56.522;14.950;2023-05-23T08:35:28;2.07;;;1.90;;
11763;SDS011;5939;56.522;14.950;2023-05-23T08:37:59;2.83;;;2.03;;
11763;SDS011;5939;56.522;14.950;2023-05-23T08:40:25;2.50;;;2.20;;
11763;SDS011;5939;56.522;14.950;2023-05-23T08:42:54;2.33;;;2.00;;
11763;SDS011;5939;56.522;14.950;2023-05-23T08:45:20;2.20;;;1.90;;
11763;SDS011;5939;56.522;14.950;2023-05-23T08:47:46;3.50;;;2.20;;
11763;SDS011;5939;56.522;14.950;2023-05-23T08:50:15;2.80;;;2.00;;
11763;SDS011;5939;56.522;14.950;2023-05-23T08:52:54;2.97;;;1.77;;
11763;SDS011;5939;56.522;14.950;2023-05-23T08:55:21;2.73;;;2.10;;
11763;SDS011;5939;56.522;14.950;2023-05-23T08:57:50;2.43;;;1.93;;
11763;SDS011;5939;56.522;14.950;2023-05-23T09:00:16;2.20;;;2.00;;
11763;SDS011;5939;56.522;14.950;2023-05-23T09:02:43;3.57;;;2.00;;
11763;SDS011;5939;56.522;14.950;2023-05-23T09:05:10;2.70;;;2.07;;
11763;SDS011;5939;56.522;14.950;2023-05-23T09:07:36;3.53;;;2.30;;
11763;SDS011;5939;56.522;14.950;2023-05-23T09:10:03;2.67;;;2.30;;
11763;SDS011;5939;56.522;14.950;2023-05-23T09:12:30;5.17;;;2.53;;
11763;SDS011;5939;56.522;14.950;2023-05-23T09:14:57;2.70;;;2.07;;
11763;SDS011;5939;56.522;14.950;2023-05-23T09:17:23;3.63;;;2.33;;
11763;SDS011;5939;56.522;14.950;2023-05-23T09:19:49;2.63;;;2.07;;
11763;SDS011;5939;56.522;14.950;2023-05-23T09:22:15;2.70;;;2.17;;
11763;SDS011;5939;56.522;14.950;2023-05-23T09:24:41;2.93;;;2.40;;
11763;SDS011;5939;56.522;14.950;2023-05-23T09:27:08;2.80;;;2.10;;
11763;SDS011;5939;56.522;14.950;2023-05-23T09:29:37;3.17;;;2.20;;
11763;SDS011;5939;56.522;14.950;2023-05-23T09:32:11;2.50;;;1.90;;
11763;SDS011;5939;56.522;14.950;2023-05-23T09:34:40;3.47;;;2.40;;
11763;SDS011;5939;56.522;14.950;2023-05-23T09:37:06;2.30;;;2.10;;
11763;SDS011;5939;56.522;14.950;2023-05-23T09:39:36;2.27;;;1.90;;
11763;SDS011;5939;56.522;14.950;2023-05-23T09:42:02;3.87;;;2.37;;
11763;SDS011;5939;56.522;14.950;2023-05-23T09:44:28;2.97;;;2.30;;
11763;SDS011;5939;56.522;14.950;2023-05-23T09:46:54;2.27;;;1.87;;
11763;SDS011;5939;56.522;14.950;2023-05-23T09:49:20;2.43;;;2.17;;
11763;SDS011;5939;56.522;14.950;2023-05-23T09:51:56;2.13;;;1.77;;
11763;SDS011;5939;56.522;14.950;2023-05-23T09:54:22;2.33;;;2.07;;
11763;SDS011;5939;56.522;14.950;2023-05-23T09:56:48;2.50;;;2.00;;
11763;SDS011;5939;56.522;14.950;2023-05-23T09:59:17;2.40;;;2.07;;
11763;SDS011;5939;56.522;14.950;2023-05-23T10:01:49;3.77;;;2.43;;
11763;SDS011;5939;56.522;14.950;2023-05-23T10:04:19;2.10;;;1.83;;
11763;SDS011;5939;56.522;14.950;2023-05-23T10:06:49;2.53;;;2.00;;
11763;SDS011;5939;56.522;14.950;2023-05-23T10:09:19;3.03;;;1.90;;
11763;SDS011;5939;56.522;14.950;2023-05-23T10:14:21;2.33;;;2.13;;
11763;SDS011;5939;56.522;14.950;2023-05-23T10:20:02;3.43;;;2.50;;
11763;SDS011;5939;56.522;14.950;2023-05-23T10:22:32;2.43;;;2.13;;
11763;SDS011;5939;56.522;14.950;2023-05-23T10:24:58;3.00;;;2.23;;
11763;SDS011;5939;56.522;14.950;2023-05-23T10:27:24;3.33;;;2.10;;
11763;SDS011;5939;56.522;14.950;2023-05-23T10:29:51;2.33;;;2.13;;
11763;SDS011;5939;56.522;14.950;2023-05-23T10:32:17;2.77;;;1.87;;
11763;SDS011;5939;56.522;14.950;2023-05-23T10:37:28;2.53;;;2.33;;
11763;SDS011;5939;56.522;14.950;2023-05-23T10:42:39;5.63;;;2.00;;
11763;SDS011;5939;56.522;14.950;2023-05-23T10:45:21;2.67;;;2.20;;
11763;SDS011;5939;56.522;14.950;2023-05-23T10:47:51;2.77;;;2.40;;
11763;SDS011;5939;56.522;14.950;2023-05-23T10:50:33;3.03;;;2.40;;
11763;SDS011;5939;56.522;14.950;2023-05-23T10:53:01;2.63;;;2.03;;
11763;SDS011;5939;56.522;14.950;2023-05-23T10:55:32;3.63;;;2.20;;
11763;SDS011;5939;56.522;14.950;2023-05-23T11:06:00;5.53;;;2.40;;
11763;SDS011;5939;56.522;14.950;2023-05-23T11:08:27;2.50;;;2.20;;
11763;SDS011;5939;56.522;14.950;2023-05-23T11:11:02;3.23;;;2.13;;
11763;SDS011;5939;56.522;14.950;2023-05-23T11:18:50;3.00;;;2.33;;
11763;SDS011;5939;56.522;14.950;2023-05-23T11:21:16;3.37;;;2.50;;
11763;SDS011;5939;56.522;14.950;2023-05-23T11:23:43;2.73;;;2.20;;
11763;SDS011;5939;56.522;14.950;2023-05-23T11:28:55;3.10;;;2.53;;
11763;SDS011;5939;56.522;14.950;2023-05-23T11:31:21;2.80;;;2.43;;
11763;SDS011;5939;56.522;14.950;2023-05-23T11:33:49;2.73;;;2.30;;
11763;SDS011;5939;56.522;14.950;2023-05-23T11:36:15;4.27;;;2.80;;
11763;SDS011;5939;56.522;14.950;2023-05-23T11:38:41;3.43;;;2.40;;
11763;SDS011;5939;56.522;14.950;2023-05-23T11:41:07;2.93;;;2.43;;
11763;SDS011;5939;56.522;14.950;2023-05-23T11:43:32;4.13;;;2.10;;
11763;SDS011;5939;56.522;14.950;2023-05-23T11:46:06;3.03;;;2.47;;
11763;SDS011;5939;56.522;14.950;2023-05-23T11:48:35;2.60;;;2.33;;
11763;SDS011;5939;56.522;14.950;2023-05-23T11:51:00;3.70;;;2.57;;
11763;SDS011;5939;56.522;14.950;2023-05-23T11:53:26;3.67;;;2.57;;
11763;SDS011;5939;56.522;14.950;2023-05-23T11:55:53;3.97;;;2.50;;
11763;SDS011;5939;56.522;14.950;2023-05-23T11:58:20;4.03;;;2.60;;
11763;SDS011;5939;56.522;14.950;2023-05-23T12:00:47;3.27;;;2.20;;
11763;SDS011;5939;56.522;14.950;2023-05-23T12:03:12;3.03;;;2.50;;
11763;SDS011;5939;56.522;14.950;2023-05-23T12:05:38;3.97;;;2.73;;
11763;SDS011;5939;56.522;14.950;2023-05-23T12:08:06;5.37;;;2.50;;
11763;SDS011;5939;56.522;14.950;2023-05-23T12:10:36;3.07;;;2.77;;
11763;SDS011;5939;56.522;14.950;2023-05-23T12:13:01;4.40;;;2.57;;
11763;SDS011;5939;56.522;14.950;2023-05-23T12:15:29;4.30;;;2.60;;
11763;SDS011;5939;56.522;14.950;2023-05-23T12:17:54;3.20;;;2.47;;
11763;SDS011;5939;56.522;14.950;2023-05-23T12:20:20;5.07;;;2.60;;
11763;SDS011;5939;56.522;14.950;2023-05-23T12:22:47;2.97;;;2.60;;
11763;SDS011;5939;56.522;14.950;2023-05-23T12:25:12;3.23;;;2.60;;
11763;SDS011;5939;56.522;14.950;2023-05-23T12:27:39;3.30;;;2.77;;
11763;SDS011;5939;56.522;14.950;2023-05-23T12:30:12;3.43;;;2.60;;
11763;SDS011;5939;56.522;14.950;2023-05-23T12:32:40;3.60;;;2.40;;
11763;SDS011;5939;56.522;14.950;2023-05-23T12:35:08;3.13;;;2.63;;
11763;SDS011;5939;56.522;14.950;2023-05-23T12:37:37;2.77;;;2.50;;
11763;SDS011;5939;56.522;14.950;2023-05-23T12:40:14;3.10;;;2.40;;
11763;SDS011;5939;56.522;14.950;2023-05-23T12:42:45;3.00;;;2.47;;
11763;SDS011;5939;56.522;14.950;2023-05-23T12:45:19;2.60;;;2.40;;
11763;SDS011;5939;56.522;14.950;2023-05-23T12:47:48;3.10;;;2.67;;
11763;SDS011;5939;56.522;14.950;2023-05-23T12:50:14;2.97;;;2.20;;
11763;SDS011;5939;56.522;14.950;2023-05-23T12:52:40;3.63;;;2.70;;
11763;SDS011;5939;56.522;14.950;2023-05-23T12:55:07;3.27;;;2.47;;
11763;SDS011;5939;56.522;14.950;2023-05-23T12:57:33;2.77;;;2.43;;
11763;SDS011;5939;56.522;14.950;2023-05-23T12:59:59;5.20;;;2.70;;
11763;SDS011;5939;56.522;14.950;2023-05-23T13:02:26;4.20;;;2.53;;
11763;SDS011;5939;56.522;14.950;2023-05-23T13:04:52;3.47;;;2.53;;
11763;SDS011;5939;56.522;14.950;2023-05-23T13:07:18;3.30;;;2.57;;
11763;SDS011;5939;56.522;14.950;2023-05-23T13:09:44;3.60;;;2.57;;
11763;SDS011;5939;56.522;14.950;2023-05-23T13:12:09;2.90;;;2.60;;
11763;SDS011;5939;56.522;14.950;2023-05-23T13:14:36;5.97;;;3.03;;
11763;SDS011;5939;56.522;14.950;2023-05-23T13:17:02;4.17;;;3.07;;
11763;SDS011;5939;56.522;14.950;2023-05-23T13:19:27;3.50;;;2.90;;
11763;SDS011;5939;56.522;14.950;2023-05-23T13:21:53;4.17;;;2.63;;
11763;SDS011;5939;56.522;14.950;2023-05-23T13:24:19;3.87;;;2.67;;
11763;SDS011;5939;56.522;14.950;2023-05-23T13:26:45;3.50;;;2.90;;
11763;SDS011;5939;56.522;14.950;2023-05-23T13:29:10;4.67;;;2.87;;
11763;SDS011;5939;56.522;14.950;2023-05-23T13:31:36;2.97;;;2.50;;
11763;SDS011;5939;56.522;14.950;2023-05-23T13:34:02;3.57;;;3.00;;
11763;SDS011;5939;56.522;14.950;2023-05-23T13:36:27;3.87;;;2.87;;
11763;SDS011;5939;56.522;14.950;2023-05-23T13:38:53;5.47;;;3.07;;
11763;SDS011;5939;56.522;14.950;2023-05-23T13:41:19;3.33;;;2.83;;
11763;SDS011;5939;56.522;14.950;2023-05-23T13:43:44;3.10;;;2.80;;
11763;SDS011;5939;56.522;14.950;2023-05-23T13:46:10;2.87;;;2.67;;
11763;SDS011;5939;56.522;14.950;2023-05-23T13:48:37;2.70;;;2.50;;
11763;SDS011;5939;56.522;14.950;2023-05-23T13:51:02;2.93;;;2.73;;
11763;SDS011;5939;56.522;14.950;2023-05-23T13:53:28;3.63;;;2.83;;
11763;SDS011;5939;56.522;14.950;2023-05-23T13:55:54;3.57;;;2.83;;
11763;SDS011;5939;56.522;14.950;2023-05-23T13:58:20;3.40;;;3.10;;
11763;SDS011;5939;56.522;14.950;2023-05-23T14:00:45;3.40;;;2.87;;
11763;SDS011;5939;56.522;14.950;2023-05-23T14:03:11;5.20;;;3.37;;
11763;SDS011;5939;56.522;14.950;2023-05-23T14:05:37;3.70;;;2.60;;
11763;SDS011;5939;56.522;14.950;2023-05-23T14:08:03;4.13;;;2.87;;
11763;SDS011;5939;56.522;14.950;2023-05-23T14:10:29;3.17;;;2.80;;
11763;SDS011;5939;56.522;14.950;2023-05-23T14:12:54;3.63;;;2.67;;
11763;SDS011;5939;56.522;14.950;2023-05-23T14:15:20;2.90;;;2.60;;
11763;SDS011;5939;56.522;14.950;2023-05-23T14:17:46;5.07;;;2.70;;
11763;SDS011;5939;56.522;14.950;2023-05-23T14:20:12;3.37;;;2.50;;
11763;SDS011;5939;56.522;14.950;2023-05-23T14:22:38;4.00;;;2.83;;
11763;SDS011;5939;56.522;14.950;2023-05-23T14:25:04;3.20;;;2.90;;
11763;SDS011;5939;56.522;14.950;2023-05-23T14:27:30;3.70;;;2.80;;
11763;SDS011;5939;56.522;14.950;2023-05-23T14:29:56;3.37;;;3.00;;
11763;SDS011;5939;56.522;14.950;2023-05-23T14:32:22;3.03;;;2.63;;
11763;SDS011;5939;56.522;14.950;2023-05-23T14:34:48;3.57;;;3.00;;
11763;SDS011;5939;56.522;14.950;2023-05-23T14:37:13;4.90;;;3.13;;
11763;SDS011;5939;56.522;14.950;2023-05-23T14:39:39;4.17;;;2.73;;
11763;SDS011;5939;56.522;14.950;2023-05-23T14:42:05;3.00;;;2.70;;
11763;SDS011;5939;56.522;14.950;2023-05-23T14:44:31;4.67;;;3.17;;
11763;SDS011;5939;56.522;14.950;2023-05-23T14:46:56;3.03;;;2.63;;
11763;SDS011;5939;56.522;14.950;2023-05-23T14:49:22;4.93;;;2.40;;
11763;SDS011;5939;56.522;14.950;2023-05-23T14:51:48;3.70;;;3.00;;
11763;SDS011;5939;56.522;14.950;2023-05-23T14:54:13;3.43;;;2.80;;
11763;SDS011;5939;56.522;14.950;2023-05-23T14:56:40;6.03;;;2.97;;
11763;SDS011;5939;56.522;14.950;2023-05-23T14:59:07;4.53;;;2.77;;
11763;SDS011;5939;56.522;14.950;2023-05-23T15:01:32;2.90;;;2.30;;
11763;SDS011;5939;56.522;14.950;2023-05-23T15:03:58;3.17;;;2.80;;
11763;SDS011;5939;56.522;14.950;2023-05-23T15:06:24;3.43;;;2.70;;
11763;SDS011;5939;56.522;14.950;2023-05-23T15:08:50;3.60;;;2.40;;
11763;SDS011;5939;56.522;14.950;2023-05-23T15:11:16;2.97;;;2.67;;
11763;SDS011;5939;56.522;14.950;2023-05-23T15:13:41;3.37;;;2.53;;
11763;SDS011;5939;56.522;14.950;2023-05-23T15:16:07;3.27;;;2.50;;
11763;SDS011;5939;56.522;14.950;2023-05-23T15:18:33;3.73;;;2.80;;
11763;SDS011;5939;56.522;14.950;2023-05-23T15:20:58;5.97;;;2.87;;